Time;durP1;ratioP1;P1;durP2;ratioP2;P2;SDS_P1;SDS_P2;PMS_P1;PMS_P2;Temp;Humidity;BMP_temperature;BMP_pressure;BME280_temperature;BME280_humidity;BME280_pressure;Samples;Min_cycle;Max_cycle;Signal;HPM_P1;HPM_P2
2021/12/09 00:00:01;;;;;;;14.27;8.43;;;3.00;92.70;;;;;;5004910;28;20084;-81
2021/12/09 00:02:28;;;;;;;16.52;8.65;;;3.00;92.70;;;;;;5014891;28;20514;-82
2021/12/09 00:04:56;;;;;;;16.33;9.48;;;3.00;92.70;;;;;;5013765;28;20029;-81
2021/12/09 00:07:22;;;;;;;17.25;10.18;;;3.00;92.70;;;;;;4959277;28;20029;-82
2021/12/09 00:09:47;;;;;;;17.60;8.95;;;3.00;92.70;;;;;;5018411;28;20043;-82
2021/12/09 00:12:13;;;;;;;19.90;10.07;;;3.00;92.70;;;;;;5005036;28;20044;-81
2021/12/09 00:14:38;;;;;;;18.60;9.52;;;3.00;92.70;;;;;;5003761;28;20124;-82
2021/12/09 00:17:06;;;;;;;21.00;10.80;;;3.10;92.80;;;;;;4993968;28;20029;-84
2021/12/09 00:19:32;;;;;;;17.00;9.43;;;3.00;92.70;;;;;;5007280;28;20029;-81
2021/12/09 00:21:59;;;;;;;18.52;9.80;;;3.00;92.70;;;;;;4988543;28;20089;-81
2021/12/09 00:24:24;;;;;;;21.45;10.43;;;3.00;92.70;;;;;;4986602;28;20099;-82
2021/12/09 00:26:50;;;;;;;17.08;8.82;;;3.00;92.70;;;;;;5007434;28;20059;-81
2021/12/09 00:29:16;;;;;;;17.85;9.15;;;3.00;92.70;;;;;;4987319;28;20112;-80
2021/12/09 00:31:42;;;;;;;18.20;9.35;;;3.00;92.70;;;;;;4991969;28;20454;-80
2021/12/09 00:34:07;;;;;;;17.77;8.80;;;3.00;92.70;;;;;;4993259;28;20049;-81
2021/12/09 00:36:40;;;;;;;19.35;10.00;;;3.00;92.70;;;;;;5007441;28;20552;-81
2021/12/09 00:39:07;;;;;;;15.88;8.90;;;3.00;92.70;;;;;;4976832;28;20033;-82
2021/12/09 00:41:32;;;;;;;15.88;9.30;;;3.00;92.70;;;;;;5008529;28;20044;-80
2021/12/09 00:43:58;;;;;;;18.02;9.27;;;3.00;92.70;;;;;;5003036;28;20113;-80
2021/12/09 00:46:24;;;;;;;20.35;10.88;;;3.00;92.70;;;;;;5037967;28;20397;-78
2021/12/09 00:48:49;;;;;;;18.67;9.10;;;3.00;92.70;;;;;;4992572;28;20726;-78
2021/12/09 00:51:15;;;;;;;20.05;9.65;;;3.00;92.80;;;;;;4998122;28;20033;-78
2021/12/09 00:53:40;;;;;;;20.60;10.20;;;3.00;92.70;;;;;;5008466;28;20052;-77
2021/12/09 00:56:07;;;;;;;20.58;11.25;;;3.00;92.70;;;;;;5032412;28;20040;-79
2021/12/09 00:58:32;;;;;;;21.48;9.90;;;3.00;92.70;;;;;;5005234;28;20030;-79
2021/12/09 01:00:58;;;;;;;20.60;9.93;;;3.00;92.70;;;;;;4982840;28;20363;-77
2021/12/09 01:03:23;;;;;;;19.05;8.43;;;3.00;92.70;;;;;;5008425;28;20038;-79
2021/12/09 01:05:49;;;;;;;20.65;9.98;;;3.00;92.70;;;;;;5004290;28;20391;-79
2021/12/09 01:08:15;;;;;;;19.38;9.65;;;3.00;92.70;;;;;;5008776;28;20482;-78
2021/12/09 01:10:40;;;;;;;20.00;10.05;;;3.00;92.70;;;;;;5052503;28;20498;-79
2021/12/09 01:13:06;;;;;;;18.88;10.20;;;3.00;92.80;;;;;;5003179;28;20702;-79
2021/12/09 01:15:32;;;;;;;21.05;10.52;;;3.00;92.80;;;;;;5021697;28;20585;-79
2021/12/09 01:17:57;;;;;;;18.65;9.98;;;3.00;92.80;;;;;;5024953;28;20036;-78
2021/12/09 01:20:26;;;;;;;23.70;11.18;;;3.00;92.80;;;;;;5008804;28;20056;-78
2021/12/09 01:22:56;;;;;;;27.30;11.30;;;3.10;92.80;;;;;;5027832;28;20043;-78
2021/12/09 01:25:22;;;;;;;26.88;12.98;;;3.10;92.80;;;;;;5013852;28;20036;-78
2021/12/09 01:27:51;;;;;;;29.60;13.63;;;3.10;92.80;;;;;;5006365;28;20040;-77
2021/12/09 01:30:18;;;;;;;23.55;11.40;;;3.10;92.80;;;;;;5016224;28;20761;-78
2021/12/09 01:32:50;;;;;;;24.77;11.90;;;3.10;92.80;;;;;;4997298;28;20054;-78
2021/12/09 01:35:17;;;;;;;24.40;11.60;;;3.10;92.80;;;;;;5014998;28;20041;-78
2021/12/09 01:37:42;;;;;;;28.15;12.27;;;3.10;92.80;;;;;;5001306;28;20030;-78
2021/12/09 01:40:09;;;;;;;27.85;13.15;;;3.00;92.80;;;;;;4988663;28;20037;-77
2021/12/09 01:42:34;;;;;;;28.73;12.05;;;3.10;92.80;;;;;;5039196;28;20033;-78
2021/12/09 01:45:00;;;;;;;27.60;12.70;;;3.10;92.80;;;;;;5001056;28;20040;-78
2021/12/09 01:47:25;;;;;;;26.70;11.88;;;3.10;92.80;;;;;;5011652;28;20041;-79
2021/12/09 01:49:51;;;;;;;29.17;13.07;;;3.10;92.80;;;;;;5017769;28;20044;-78
2021/12/09 01:52:17;;;;;;;26.80;13.27;;;3.10;92.80;;;;;;5011598;28;20068;-79
2021/12/09 01:54:42;;;;;;;32.22;14.02;;;3.10;92.80;;;;;;5002405;28;20073;-78
2021/12/09 01:57:08;;;;;;;24.27;11.30;;;3.10;92.80;;;;;;5007608;28;20112;-78
2021/12/09 01:59:33;;;;;;;26.38;12.20;;;3.10;92.80;;;;;;4999271;28;20033;-78
2021/12/09 02:01:59;;;;;;;25.58;12.30;;;3.10;92.80;;;;;;4998355;28;20041;-78
2021/12/09 02:04:25;;;;;;;24.60;11.70;;;3.10;92.80;;;;;;5010980;28;20037;-77
2021/12/09 02:06:52;;;;;;;21.02;10.15;;;3.10;92.80;;;;;;5015740;28;20544;-78
2021/12/09 02:09:17;;;;;;;22.55;11.10;;;3.10;92.80;;;;;;5023424;28;20495;-78
2021/12/09 02:11:43;;;;;;;26.52;12.43;;;3.10;92.80;;;;;;4982034;28;20033;-78
2021/12/09 02:14:09;;;;;;;22.92;10.82;;;3.10;92.80;;;;;;5030721;28;20049;-78
2021/12/09 02:16:35;;;;;;;21.05;10.43;;;3.10;92.80;;;;;;5001085;28;20037;-78
2021/12/09 02:19:01;;;;;;;22.20;10.05;;;3.10;92.80;;;;;;5012831;28;20030;-77
2021/12/09 02:21:28;;;;;;;23.08;10.95;;;3.10;92.80;;;;;;5010442;28;20091;-78
2021/12/09 02:23:56;;;;;;;23.48;11.10;;;3.10;92.80;;;;;;5003122;28;20063;-80
2021/12/09 02:26:25;;;;;;;23.02;11.15;;;3.10;92.80;;;;;;5025199;28;20048;-81
2021/12/09 02:28:51;;;;;;;22.38;11.30;;;3.10;92.80;;;;;;5007539;28;20598;-82
2021/12/09 02:31:16;;;;;;;22.98;10.95;;;3.20;92.90;;;;;;5018844;28;20060;-80
2021/12/09 02:33:42;;;;;;;22.50;10.93;;;3.10;92.80;;;;;;5021472;28;20061;-80
2021/12/09 02:36:08;;;;;;;25.85;11.40;;;3.10;92.80;;;;;;5006878;28;20649;-82
2021/12/09 02:38:41;;;;;;;25.27;12.27;;;3.20;92.90;;;;;;5009277;28;20014;-80
2021/12/09 02:41:09;;;;;;;24.65;10.98;;;3.10;92.80;;;;;;5017880;28;20052;-80
2021/12/09 02:43:34;;;;;;;24.80;11.05;;;3.10;92.90;;;;;;5013397;28;20096;-80
2021/12/09 02:46:01;;;;;;;22.08;10.65;;;3.20;92.90;;;;;;5015333;28;20033;-81
2021/12/09 02:48:26;;;;;;;23.27;11.35;;;3.10;93.20;;;;;;5029296;28;20031;-80
2021/12/09 02:50:52;;;;;;;26.02;12.55;;;3.10;92.90;;;;;;5019490;28;20021;-81
2021/12/09 02:53:18;;;;;;;26.50;12.07;;;3.10;92.80;;;;;;5015462;28;20033;-80
2021/12/09 02:55:44;;;;;;;26.85;11.55;;;3.10;92.80;;;;;;5019356;28;20017;-79
2021/12/09 02:58:10;;;;;;;23.45;10.93;;;3.10;92.80;;;;;;5013015;28;20033;-80
2021/12/09 03:01:13;;;;;;;26.88;11.68;;;3.10;92.80;;;;;;5001742;28;20522;-80
2021/12/09 03:03:59;;;;;;;25.85;11.77;;;3.10;92.90;;;;;;5042768;28;20053;-80
2021/12/09 03:06:39;;;;;;;21.85;10.57;;;3.10;92.80;;;;;;5024025;28;20284;-81
2021/12/09 03:09:09;;;;;;;21.45;10.50;;;3.10;92.80;;;;;;5024198;28;20033;-80
2021/12/09 03:11:35;;;;;;;25.10;11.53;;;3.10;92.80;;;;;;5016367;28;20028;-82
2021/12/09 03:14:00;;;;;;;20.77;10.05;;;3.10;92.80;;;;;;5032917;28;20032;-80
2021/12/09 03:16:26;;;;;;;23.85;10.88;;;3.10;92.80;;;;;;5017029;28;20053;-80
2021/12/09 03:18:54;;;;;;;26.60;11.35;;;3.10;92.80;;;;;;5020001;28;20029;-81
2021/12/09 03:21:28;;;;;;;22.38;10.82;;;3.10;92.80;;;;;;5021303;28;20040;-82
2021/12/09 03:23:54;;;;;;;20.13;10.57;;;3.20;92.90;;;;;;5010088;28;20029;-81
2021/12/09 03:26:25;;;;;;;24.08;10.85;;;3.10;92.90;;;;;;5004564;28;20040;-82
2021/12/09 03:28:52;;;;;;;20.45;10.77;;;3.20;92.90;;;;;;5004460;28;20087;-82
2021/12/09 03:31:18;;;;;;;27.67;11.32;;;3.10;92.90;;;;;;5019019;28;20063;-81
2021/12/09 03:33:43;;;;;;;27.33;11.45;;;3.10;92.90;;;;;;5041207;28;20053;-82
2021/12/09 03:36:09;;;;;;;22.15;10.77;;;3.10;92.90;;;;;;5015571;28;20056;-81
2021/12/09 03:38:34;;;;;;;20.75;9.82;;;3.10;92.90;;;;;;5010567;28;20394;-80
2021/12/09 03:41:00;;;;;;;22.83;10.52;;;3.10;92.90;;;;;;5029805;28;20041;-81
2021/12/09 03:43:25;;;;;;;22.02;10.68;;;3.10;92.80;;;;;;5023495;28;20024;-80
2021/12/09 03:45:53;;;;;;;22.55;10.13;;;3.10;92.90;;;;;;4994662;28;20071;-82
2021/12/09 03:48:19;;;;;;;21.50;10.52;;;3.10;92.90;;;;;;5011795;28;20034;-81
2021/12/09 03:50:45;;;;;;;22.75;10.40;;;3.10;92.90;;;;;;5025334;28;20067;-82
2021/12/09 03:53:12;;;;;;;18.02;9.38;;;3.10;92.90;;;;;;5009083;28;20104;-81
2021/12/09 03:55:37;;;;;;;21.77;10.50;;;3.10;92.90;;;;;;5004234;28;20120;-80
2021/12/09 03:58:04;;;;;;;18.98;9.68;;;3.10;92.90;;;;;;5017645;28;20638;-81
2021/12/09 04:00:30;;;;;;;19.95;9.35;;;3.10;92.90;;;;;;5014119;28;20134;-82
2021/12/09 04:02:57;;;;;;;16.50;8.60;;;3.10;92.90;;;;;;5026173;28;20028;-82
2021/12/09 04:05:22;;;;;;;17.73;8.80;;;3.10;92.90;;;;;;5000025;28;20034;-82
2021/12/09 04:07:48;;;;;;;18.85;9.55;;;3.20;92.90;;;;;;5020270;28;20116;-82
2021/12/09 04:10:13;;;;;;;18.42;8.80;;;3.10;92.90;;;;;;4994105;28;20048;-81
2021/12/09 04:12:39;;;;;;;18.42;9.15;;;3.10;92.90;;;;;;5014644;28;20057;-82
2021/12/09 04:15:05;;;;;;;19.08;9.32;;;3.10;92.90;;;;;;5028903;28;20148;-81
2021/12/09 04:17:31;;;;;;;18.23;9.02;;;3.10;92.90;;;;;;4986014;28;20088;-82
2021/12/09 04:19:56;;;;;;;19.20;9.30;;;3.10;92.90;;;;;;5024640;28;20026;-80
2021/12/09 04:22:22;;;;;;;16.65;9.07;;;3.10;92.90;;;;;;5021720;28;20025;-81
2021/12/09 04:24:48;;;;;;;18.48;8.35;;;3.10;92.90;;;;;;5021886;28;20392;-81
2021/12/09 04:27:13;;;;;;;16.92;8.68;;;3.10;92.90;;;;;;5037171;28;20052;-81
2021/12/09 04:29:39;;;;;;;21.38;9.90;;;3.10;92.90;;;;;;5036094;28;20034;-81
2021/12/09 04:32:05;;;;;;;18.00;9.13;;;3.10;92.90;;;;;;5008618;28;20068;-82
2021/12/09 04:34:30;;;;;;;19.83;8.38;;;3.10;92.90;;;;;;5008635;28;20037;-82
2021/12/09 04:36:57;;;;;;;19.60;8.75;;;3.10;92.90;;;;;;5020205;28;20348;-82
2021/12/09 04:39:22;;;;;;;18.60;8.45;;;3.10;92.90;;;;;;5027512;28;20029;-81
2021/12/09 04:41:48;;;;;;;17.20;8.52;;;3.10;92.90;;;;;;5017694;28;20040;-81
2021/12/09 04:44:13;;;;;;;17.20;8.63;;;3.10;92.90;;;;;;5035536;28;20127;-81
2021/12/09 04:46:39;;;;;;;15.27;7.90;;;3.00;92.90;;;;;;5023008;28;20037;-80
2021/12/09 04:49:05;;;;;;;18.95;8.63;;;3.00;92.90;;;;;;5022147;28;20041;-82
2021/12/09 04:51:30;;;;;;;17.50;9.23;;;3.00;92.90;;;;;;5023296;28;20041;-83
2021/12/09 04:53:56;;;;;;;18.27;8.80;;;3.00;92.80;;;;;;4989705;28;20044;-82
2021/12/09 04:56:22;;;;;;;21.67;9.07;;;3.00;92.80;;;;;;5021486;28;20043;-80
2021/12/09 04:58:47;;;;;;;19.35;8.73;;;3.00;92.80;;;;;;4997944;28;20039;-81
2021/12/09 05:01:13;;;;;;;17.85;8.90;;;2.90;92.80;;;;;;5023915;28;20060;-82
2021/12/09 05:03:39;;;;;;;16.80;7.82;;;2.90;92.80;;;;;;5021579;28;20040;-80
2021/12/09 05:06:04;;;;;;;19.08;8.18;;;2.90;92.80;;;;;;5006965;28;20029;-80
2021/12/09 05:08:32;;;;;;;20.17;9.40;;;2.90;92.80;;;;;;5019613;28;20035;-82
2021/12/09 05:11:14;;;;;;;16.23;8.27;;;2.80;92.80;;;;;;5023665;28;20033;-82
2021/12/09 05:13:40;;;;;;;18.85;8.77;;;2.80;92.80;;;;;;5013174;28;20042;-80
2021/12/09 05:16:07;;;;;;;16.50;8.77;;;2.80;92.80;;;;;;5022046;28;20036;-80
2021/12/09 05:18:35;;;;;;;18.25;8.90;;;2.80;92.80;;;;;;5021543;28;20031;-81
2021/12/09 05:21:01;;;;;;;17.60;8.85;;;2.70;92.80;;;;;;5003633;28;20037;-82
2021/12/09 05:23:27;;;;;;;17.45;7.78;;;2.70;92.70;;;;;;5005791;28;20528;-81
2021/12/09 05:25:52;;;;;;;19.00;9.52;;;2.70;92.70;;;;;;4986917;28;20088;-82
2021/12/09 05:28:19;;;;;;;18.23;8.82;;;2.70;92.80;;;;;;5036628;28;20616;-81
2021/12/09 05:33:33;;;;;;;23.02;9.45;;;2.60;92.70;;;;;;5021949;28;20099;-80
2021/12/09 05:35:58;;;;;;;21.75;9.90;;;2.60;92.70;;;;;;5024222;28;20067;-80
2021/12/09 05:38:24;;;;;;;19.48;9.88;;;2.60;92.70;;;;;;5021792;28;20079;-81
2021/12/09 05:40:50;;;;;;;18.45;8.23;;;2.50;92.70;;;;;;5041307;28;20053;-83
2021/12/09 05:43:15;;;;;;;17.83;8.25;;;2.50;92.70;;;;;;5030391;28;20118;-80
2021/12/09 05:45:42;;;;;;;17.58;8.23;;;2.50;92.70;;;;;;5030789;28;20021;-81
2021/12/09 05:48:09;;;;;;;17.02;7.82;;;2.50;93.10;;;;;;5018131;28;20114;-80
2021/12/09 05:50:34;;;;;;;19.42;8.57;;;2.50;92.70;;;;;;5011966;28;20029;-81
2021/12/09 05:53:00;;;;;;;17.85;8.13;;;2.50;92.70;;;;;;5013957;28;20067;-81
2021/12/09 05:55:25;;;;;;;16.02;8.13;;;2.50;92.70;;;;;;4993988;28;20091;-81
2021/12/09 05:57:51;;;;;;;19.27;9.65;;;2.40;92.70;;;;;;5010101;28;20041;-80
2021/12/09 06:00:17;;;;;;;20.40;8.88;;;2.40;92.70;;;;;;5018068;28;20064;-80
2021/12/09 06:02:42;;;;;;;15.27;8.00;;;2.40;92.70;;;;;;5031458;28;20055;-81
2021/12/09 06:05:08;;;;;;;18.35;8.10;;;2.40;92.70;;;;;;5021986;28;20515;-80
2021/12/09 06:07:34;;;;;;;20.58;9.35;;;2.40;92.70;;;;;;5015952;28;20050;-80
2021/12/09 06:10:01;;;;;;;19.50;8.38;;;2.30;92.70;;;;;;4995123;28;20033;-80
2021/12/09 06:12:27;;;;;;;15.82;8.13;;;2.30;92.70;;;;;;4992384;28;20040;-82
2021/12/09 06:14:53;;;;;;;16.00;7.95;;;2.30;92.70;;;;;;5028508;28;20115;-80
2021/12/09 06:17:18;;;;;;;17.33;7.65;;;2.20;92.70;;;;;;4997638;28;20061;-79
2021/12/09 06:19:44;;;;;;;19.33;8.77;;;2.20;92.70;;;;;;5016596;28;20044;-80
2021/12/09 06:22:09;;;;;;;18.67;7.30;;;2.20;92.70;;;;;;5008313;28;20462;-80
2021/12/09 06:24:35;;;;;;;19.63;7.07;;;2.20;92.80;;;;;;4991856;28;20641;-82
2021/12/09 06:27:03;;;;;;;19.10;8.00;;;2.20;92.80;;;;;;5029979;28;20510;-78
2021/12/09 06:29:28;;;;;;;17.33;8.25;;;2.20;92.80;;;;;;4988146;28;20438;-78
2021/12/09 06:31:54;;;;;;;18.15;8.18;;;2.20;92.80;;;;;;4988295;28;20075;-78
2021/12/09 06:34:20;;;;;;;17.42;7.82;;;2.20;92.80;;;;;;4991368;28;20037;-79
2021/12/09 06:36:45;;;;;;;17.90;7.43;;;2.20;92.80;;;;;;4983369;28;20050;-78
2021/12/09 06:39:12;;;;;;;14.77;7.63;;;2.20;92.80;;;;;;5016459;28;20387;-79
2021/12/09 06:41:38;;;;;;;17.30;7.13;;;2.20;92.80;;;;;;4985109;28;20033;-78
2021/12/09 06:44:04;;;;;;;14.00;7.32;;;2.20;92.90;;;;;;4975309;28;20412;-79
2021/12/09 06:46:29;;;;;;;14.70;8.25;;;2.20;92.90;;;;;;5004536;28;20037;-79
2021/12/09 06:48:55;;;;;;;13.35;7.25;;;2.20;92.80;;;;;;5017650;28;20562;-78
2021/12/09 06:51:20;;;;;;;19.13;9.30;;;2.20;92.90;;;;;;4975798;28;20037;-78
2021/12/09 06:53:46;;;;;;;16.95;8.55;;;2.20;92.90;;;;;;5014728;28;20029;-79
2021/12/09 06:56:12;;;;;;;17.17;7.97;;;2.20;92.90;;;;;;5024175;28;20059;-79
2021/12/09 06:58:37;;;;;;;17.98;7.40;;;2.20;92.90;;;;;;5014438;28;20026;-79
2021/12/09 07:01:03;;;;;;;16.55;8.25;;;2.20;92.90;;;;;;5003244;28;20042;-78
2021/12/09 07:03:29;;;;;;;17.73;7.45;;;2.20;92.90;;;;;;5009391;28;20033;-79
2021/12/09 07:05:55;;;;;;;24.25;9.63;;;2.20;92.90;;;;;;4967172;28;20032;-79
2021/12/09 07:08:21;;;;;;;23.73;10.30;;;2.20;92.90;;;;;;5017286;28;20025;-79
2021/12/09 07:10:47;;;;;;;18.92;8.32;;;2.30;92.90;;;;;;5001914;28;20036;-79
2021/12/09 07:13:13;;;;;;;18.92;8.95;;;2.30;92.90;;;;;;5006859;28;20394;-78
2021/12/09 07:15:38;;;;;;;21.60;9.88;;;2.20;92.90;;;;;;4990652;28;20546;-79
2021/12/09 07:18:04;;;;;;;16.17;8.15;;;2.20;92.90;;;;;;4967462;28;20036;-79
2021/12/09 07:20:30;;;;;;;17.33;8.38;;;2.20;92.90;;;;;;5005900;28;20141;-79
2021/12/09 07:22:55;;;;;;;23.30;7.47;;;2.20;92.90;;;;;;4973117;28;20038;-78
2021/12/09 07:25:22;;;;;;;16.30;7.60;;;2.20;92.90;;;;;;4993340;28;20085;-79
2021/12/09 07:27:47;;;;;;;15.90;8.57;;;2.20;92.90;;;;;;4970942;28;20038;-78
2021/12/09 07:30:14;;;;;;;15.57;8.27;;;2.20;92.90;;;;;;4958650;28;20099;-79
2021/12/09 07:32:39;;;;;;;16.27;7.60;;;2.20;92.90;;;;;;4988741;28;20114;-79
2021/12/09 07:35:06;;;;;;;12.57;7.07;;;2.20;92.90;;;;;;4973954;28;20068;-79
2021/12/09 07:37:31;;;;;;;13.73;7.80;;;2.20;92.90;;;;;;4998091;28;20034;-79
2021/12/09 07:39:57;;;;;;;15.27;7.72;;;2.20;92.90;;;;;;5006359;28;20029;-79
2021/12/09 07:42:22;;;;;;;14.25;7.38;;;2.20;92.90;;;;;;5000005;28;20041;-79
2021/12/09 07:44:48;;;;;;;22.10;10.57;;;2.20;92.90;;;;;;4972606;28;20053;-79
2021/12/09 07:47:13;;;;;;;23.48;11.98;;;2.20;92.90;;;;;;5010858;28;20570;-78
2021/12/09 07:49:39;;;;;;;21.17;11.45;;;2.30;93.00;;;;;;4993056;28;20068;-79
2021/12/09 07:52:05;;;;;;;24.88;13.27;;;2.30;93.00;;;;;;4980449;28;20045;-79
2021/12/09 07:54:31;;;;;;;24.00;11.93;;;2.30;93.30;;;;;;5027025;28;20132;-79
2021/12/09 07:56:56;;;;;;;17.25;9.43;;;2.30;93.00;;;;;;4973513;28;20056;-79
2021/12/09 07:59:22;;;;;;;19.08;9.05;;;2.30;93.00;;;;;;5009566;28;20073;-80
2021/12/09 08:01:48;;;;;;;20.65;9.68;;;2.30;93.00;;;;;;5010890;28;20042;-79
2021/12/09 08:04:14;;;;;;;23.10;10.45;;;2.30;93.00;;;;;;5008731;28;20033;-79
2021/12/09 08:06:39;;;;;;;17.10;8.73;;;2.30;93.00;;;;;;4981890;28;20042;-79
2021/12/09 08:09:05;;;;;;;20.00;7.82;;;2.30;93.00;;;;;;4999344;28;20267;-79
2021/12/09 08:11:33;;;;;;;18.10;8.38;;;2.40;93.10;;;;;;4994535;28;20093;-79
2021/12/09 08:13:59;;;;;;;21.00;9.55;;;2.30;93.10;;;;;;4976345;28;20033;-80
2021/12/09 08:16:25;;;;;;;20.40;9.20;;;2.40;93.10;;;;;;5015703;28;20037;-79
2021/12/09 08:18:56;;;;;;;20.42;9.30;;;2.40;93.10;;;;;;5023839;28;20040;-80
2021/12/09 08:21:26;;;;;;;19.52;9.23;;;2.40;93.10;;;;;;4996622;28;20128;-79
2021/12/09 08:23:52;;;;;;;22.02;9.77;;;2.40;93.10;;;;;;4991788;28;20124;-79
2021/12/09 08:26:19;;;;;;;21.23;11.20;;;2.40;93.10;;;;;;5014695;28;20096;-79
2021/12/09 08:28:44;;;;;;;25.75;14.32;;;2.50;93.10;;;;;;4992402;28;20038;-79
2021/12/09 08:31:10;;;;;;;27.77;15.27;;;2.50;93.10;;;;;;5003170;28;20044;-79
2021/12/09 08:33:35;;;;;;;23.98;14.27;;;2.50;93.10;;;;;;5036939;28;20045;-78
2021/12/09 08:36:01;;;;;;;28.27;15.27;;;2.50;93.10;;;;;;5006996;28;20030;-79
2021/12/09 08:38:26;;;;;;;26.52;15.40;;;2.50;93.10;;;;;;4974974;28;20040;-79
2021/12/09 08:40:53;;;;;;;27.98;16.00;;;2.50;93.10;;;;;;5007169;28;20021;-79
2021/12/09 08:43:19;;;;;;;35.58;19.77;;;2.50;93.20;;;;;;4999718;28;20038;-79
2021/12/09 08:45:45;;;;;;;28.58;18.15;;;2.60;93.20;;;;;;4984551;28;20120;-79
2021/12/09 08:48:11;;;;;;;39.03;18.05;;;2.60;93.20;;;;;;4980733;28;20163;-79
2021/12/09 08:50:36;;;;;;;31.88;16.40;;;2.60;93.20;;;;;;5002026;28;20426;-79
2021/12/09 08:53:04;;;;;;;22.45;12.98;;;2.60;93.20;;;;;;4981799;28;20059;-78
2021/12/09 08:55:30;;;;;;;28.17;16.20;;;2.60;93.20;;;;;;4985557;28;20125;-78
2021/12/09 08:57:56;;;;;;;30.13;16.05;;;2.70;93.20;;;;;;5011489;28;20121;-78
2021/12/09 09:00:22;;;;;;;25.70;13.60;;;2.70;93.20;;;;;;4979056;28;20060;-78
2021/12/09 09:02:50;;;;;;;26.58;14.25;;;2.70;93.20;;;;;;5013505;28;20655;-78
2021/12/09 09:05:15;;;;;;;19.83;11.18;;;2.70;93.20;;;;;;5010782;28;20029;-79
2021/12/09 09:07:41;;;;;;;25.10;14.52;;;2.80;93.30;;;;;;4997511;28;20466;-78
2021/12/09 09:10:07;;;;;;;33.58;20.63;;;2.80;93.30;;;;;;5017445;28;20109;-78
2021/12/09 09:12:33;;;;;;;31.40;18.67;;;2.80;93.30;;;;;;4981316;28;20079;-79
2021/12/09 09:15:06;;;;;;;32.20;19.45;;;2.90;93.30;;;;;;5003836;28;20037;-80
2021/12/09 09:17:31;;;;;;;30.35;17.88;;;2.90;93.30;;;;;;4998757;28;20626;-79
2021/12/09 09:19:57;;;;;;;30.38;18.50;;;2.90;93.30;;;;;;5002174;28;20045;-78
2021/12/09 09:22:22;;;;;;;22.88;13.18;;;3.00;93.30;;;;;;4997699;28;20033;-79
2021/12/09 09:24:48;;;;;;;22.08;12.23;;;3.00;93.30;;;;;;4999186;28;20045;-79
2021/12/09 09:27:13;;;;;;;22.15;13.68;;;3.00;93.30;;;;;;4983224;28;20029;-78
2021/12/09 09:29:40;;;;;;;26.38;15.23;;;3.10;93.30;;;;;;4983999;28;20050;-78
2021/12/09 09:32:07;;;;;;;33.95;17.38;;;3.10;93.30;;;;;;4991450;28;20122;-77
2021/12/09 09:34:33;;;;;;;24.17;14.52;;;3.10;93.30;;;;;;5002057;28;20041;-78
2021/12/09 09:36:58;;;;;;;26.80;15.40;;;3.10;93.30;;;;;;5012416;28;20040;-77
2021/12/09 09:39:28;;;;;;;35.15;17.48;;;3.20;93.30;;;;;;5007499;28;20087;-77
2021/12/09 09:44:45;;;;;;;26.58;14.80;;;3.30;93.30;;;;;;4977307;28;20034;-78
2021/12/09 09:47:11;;;;;;;29.65;14.80;;;3.30;93.40;;;;;;4992292;28;20053;-77
2021/12/09 09:49:37;;;;;;;24.25;14.18;;;3.40;93.40;;;;;;4987146;28;20065;-78
2021/12/09 09:52:03;;;;;;;21.23;12.65;;;3.40;93.70;;;;;;5015725;28;20040;-78
2021/12/09 09:54:28;;;;;;;33.35;12.93;;;3.50;93.40;;;;;;4987249;28;20048;-78
2021/12/09 09:56:54;;;;;;;23.83;12.27;;;3.50;93.40;;;;;;5012613;28;20041;-77
2021/12/09 09:59:19;;;;;;;26.17;10.30;;;3.60;93.40;;;;;;5020264;28;20094;-77
2021/12/09 10:01:46;;;;;;;17.50;9.73;;;3.60;93.40;;;;;;4998098;28;20052;-78
2021/12/09 10:04:14;;;;;;;19.38;9.88;;;3.70;93.40;;;;;;5032106;28;20041;-78
2021/12/09 10:06:44;;;;;;;11.77;7.95;;;3.80;93.40;;;;;;5020360;28;20037;-78
2021/12/09 10:09:10;;;;;;;14.13;8.30;;;3.80;93.40;;;;;;5022506;28;20033;-78
2021/12/09 10:11:35;;;;;;;17.10;10.20;;;3.90;93.40;;;;;;5009829;28;20094;-77
2021/12/09 10:14:09;;;;;;;19.92;11.07;;;3.90;93.40;;;;;;5002594;28;20037;-78
2021/12/09 10:16:34;;;;;;;13.30;5.80;;;4.00;93.40;;;;;;4989956;28;20493;-77
2021/12/09 10:19:00;;;;;;;6.63;3.35;;;4.10;93.40;;;;;;5021500;28;20041;-78
2021/12/09 10:21:29;;;;;;;10.40;5.38;;;4.10;93.30;;;;;;5019120;28;20593;-78
2021/12/09 10:24:03;;;;;;;8.40;5.05;;;4.20;93.30;;;;;;5011154;28;20037;-78
2021/12/09 10:26:30;;;;;;;10.43;4.57;;;4.30;93.30;;;;;;5008446;28;20395;-77
2021/12/09 10:29:03;;;;;;;10.45;4.30;;;4.30;93.20;;;;;;5018528;28;20042;-78
2021/12/09 10:31:34;;;;;;;7.60;4.70;;;4.40;93.30;;;;;;4975588;28;20660;-78
2021/12/09 10:34:13;;;;;;;8.38;3.50;;;4.40;93.20;;;;;;5001914;28;20139;-78
2021/12/09 10:36:46;;;;;;;9.10;3.25;;;4.50;93.20;;;;;;5042742;28;20041;-78
2021/12/09 10:39:38;;;;;;;5.53;3.88;;;4.50;93.20;;;;;;5002112;28;20038;-78
2021/12/09 10:42:07;;;;;;;;;;;4.60;93.10;;;;;;5018632;28;20041;-78
2021/12/09 10:44:44;;;;;;;5.30;3.33;;;4.60;93.10;;;;;;5022843;28;20294;-78
2021/12/09 10:47:15;;;;;;;8.30;3.50;;;4.70;93.00;;;;;;5016408;28;20033;-78
2021/12/09 10:50:02;;;;;;;8.10;3.70;;;4.70;93.00;;;;;;5027745;28;20043;-77
2021/12/09 10:52:37;;;;;;;5.43;2.97;;;4.70;93.00;;;;;;5009218;28;20041;-78
2021/12/09 10:55:08;;;;;;;6.18;3.03;;;4.70;92.90;;;;;;5015242;28;20603;-78
2021/12/09 10:57:34;;;;;;;8.98;5.13;;;4.80;92.90;;;;;;5011975;28;20037;-78
2021/12/09 11:00:18;;;;;;;7.90;3.30;;;4.80;92.80;;;;;;5032890;28;20202;-78
2021/12/09 11:03:06;;;;;;;6.20;2.97;;;4.80;92.80;;;;;;5047301;28;20024;-78
2021/12/09 11:05:34;;;;;;;8.18;3.55;;;4.80;93.10;;;;;;5058744;28;20029;-78
2021/12/09 11:08:16;;;;;;;10.10;2.80;;;4.80;92.70;;;;;;5024879;28;20150;-78
2021/12/09 11:10:46;;;;;;;6.28;2.83;;;4.80;92.70;;;;;;5029576;28;20479;-78
2021/12/09 11:13:12;;;;;;;5.57;2.67;;;4.80;93.00;;;;;;5005609;28;20483;-77
2021/12/09 11:16:05;;;;;;;6.97;3.08;;;4.80;92.60;;;;;;4997324;28;20098;-78
2021/12/09 11:18:39;;;;;;;7.63;3.08;;;4.80;92.60;;;;;;5019433;28;20761;-78
2021/12/09 11:21:10;;;;;;;10.77;4.18;;;4.80;92.60;;;;;;5009721;28;20033;-78
2021/12/09 11:23:56;;;;;;;9.93;3.20;;;4.90;92.60;;;;;;5016136;28;20755;-78
2021/12/09 11:26:42;;;;;;;7.60;3.58;;;4.90;92.60;;;;;;5031840;28;20532;-78
2021/12/09 11:29:39;;;;;;;16.95;5.50;;;5.00;92.60;;;;;;5038592;28;20033;-78
2021/12/09 11:32:17;;;;;;;14.27;6.50;;;5.00;92.60;;;;;;5024911;28;20047;-78
2021/12/09 11:34:54;;;;;;;52.33;19.10;;;5.10;92.50;;;;;;5019657;28;20034;-78
2021/12/09 11:37:37;;;;;;;35.70;12.55;;;5.10;92.50;;;;;;5024271;28;20122;-78
2021/12/09 11:40:18;;;;;;;16.75;6.75;;;5.10;92.40;;;;;;5026539;28;20036;-78
2021/12/09 11:42:53;;;;;;;16.58;7.55;;;5.20;92.40;;;;;;5027274;28;20087;-78
2021/12/09 11:45:22;;;;;;;17.60;6.97;;;5.20;92.30;;;;;;5027910;28;20036;-78
2021/12/09 11:47:49;;;;;;;12.38;5.47;;;5.20;92.30;;;;;;5003618;28;20033;-78
2021/12/09 11:50:19;;;;;;;11.00;4.80;;;5.20;92.30;;;;;;5000963;28;20029;-78
2021/12/09 11:52:45;;;;;;;9.82;4.65;;;5.20;92.20;;;;;;4995010;28;20041;-78
2021/12/09 11:55:16;;;;;;;9.90;5.43;;;5.10;92.10;;;;;;5012710;28;20086;-78
2021/12/09 11:57:50;;;;;;;10.07;5.13;;;5.20;92.20;;;;;;5017926;28;20048;-78
2021/12/09 12:07:19;;;;;;;11.50;5.40;;;5.30;92.10;;;;;;5027860;28;20047;-78
2021/12/09 12:12:46;;;;;;;10.00;5.28;;;5.30;92.00;;;;;;4998384;28;20040;-78
2021/12/09 12:15:40;;;;;;;14.63;6.32;;;5.30;92.00;;;;;;5023712;28;20111;-78
2021/12/09 12:21:42;;;;;;;11.18;4.93;;;5.40;92.00;;;;;;5027772;28;20044;-78
2021/12/09 12:25:09;;;;;;;9.23;4.50;;;5.40;92.00;;;;;;5036732;28;20044;-77
2021/12/09 12:30:38;;;;;;;8.95;4.68;;;5.40;91.80;;;;;;5018926;28;20071;-78
2021/12/09 12:38:09;;;;;;;7.68;4.50;;;5.50;91.90;;;;;;5022312;28;19912;-78
2021/12/09 12:40:59;;;;;;;12.23;4.78;;;5.50;91.80;;;;;;5032313;28;20058;-78
2021/12/09 12:43:25;;;;;;;10.05;4.50;;;5.50;91.80;;;;;;5022917;28;20107;-78
2021/12/09 12:49:02;;;;;;;8.85;4.90;;;5.50;91.70;;;;;;5021570;28;20073;-78
2021/12/09 12:52:08;;;;;;;14.90;5.47;;;5.40;91.60;;;;;;5035890;28;20095;-78
2021/12/09 12:54:54;;;;;;;7.80;5.07;;;5.40;91.50;;;;;;5023765;28;20043;-78
2021/12/09 12:57:34;;;;;;;12.98;7.15;;;5.40;91.60;;;;;;5023299;28;20040;-78
2021/12/09 13:00:31;;;;;;;9.68;5.57;;;5.40;91.60;;;;;;5004381;28;20222;-78
2021/12/09 13:03:11;;;;;;;18.70;8.13;;;5.40;91.50;;;;;;4999795;28;20072;-78
2021/12/09 13:05:51;;;;;;;11.20;5.37;;;5.40;91.60;;;;;;5016317;28;20039;-78
2021/12/09 13:21:39;;;;;;;9.75;4.97;;;5.50;91.50;;;;;;5038354;28;20439;-78
2021/12/09 13:24:26;;;;;;;9.32;4.70;;;5.50;91.30;;;;;;5025017;28;20680;-78
2021/12/09 13:33:01;;;;;;;11.00;4.43;;;5.30;91.30;;;;;;5017168;28;20036;-77
2021/12/09 13:49:08;;;;;;;12.13;5.97;;;5.20;91.30;;;;;;5033031;28;20714;-77
2021/12/09 13:54:28;;;;;;;24.40;10.90;;;5.20;91.20;;;;;;5018738;28;20037;-78